createdAt,value
2018-11-26T20:34:26.417Z,38.66
2018-11-26T20:58:20.635Z,63.84
2018-11-26T21:00:49.702Z,71.21
2018-11-26T21:03:18.703Z,76.58
2018-11-26T21:05:47.726Z,79.16
2018-11-26T21:08:16.886Z,81.22
2018-11-26T21:10:45.901Z,82.94
2018-11-26T21:13:17.032Z,81.64
2018-11-26T21:15:45.111Z,80.29
2018-11-26T21:18:15.032Z,80.09
2018-11-26T21:20:46.998Z,79.94
2018-11-26T21:23:18.011Z,79.93
2018-11-26T21:25:51.455Z,78.84
2018-11-26T21:28:20.594Z,78.96
2018-11-26T21:30:52.275Z,78.55
2018-11-26T21:33:19.791Z,78.45
2018-11-26T21:35:48.985Z,78.15
2018-11-26T21:38:18.652Z,78.11
2018-11-26T21:40:47.405Z,77.33
2018-11-26T21:43:16.927Z,77.26
2018-11-26T21:45:49.581Z,77.60
2018-11-26T21:48:18.698Z,77.58
2018-11-26T21:50:48.479Z,77.94
2018-11-26T21:53:17.511Z,78.36
2018-11-26T21:55:46.563Z,78.94
2018-11-26T21:58:15.598Z,79.12
2018-11-26T22:00:44.858Z,78.99
2018-11-26T22:03:14.704Z,78.79
2018-11-26T22:05:44.494Z,78.87
2018-11-26T22:08:13.596Z,79.23
2018-11-26T22:10:43.619Z,79.01
2018-11-26T22:13:14.127Z,79.28
2018-11-26T22:15:43.151Z,79.23
2018-11-26T22:18:12.187Z,78.82
2018-11-26T22:20:41.256Z,79.80
2018-11-26T22:23:10.268Z,79.76
2018-11-26T22:25:39.311Z,79.84
2018-11-26T22:28:09.978Z,80.07
2018-11-26T22:30:39.717Z,80.11
2018-11-26T22:33:09.106Z,79.97
2018-11-26T22:35:37.983Z,79.80
2018-11-26T22:38:07.146Z,80.26
2018-11-26T22:40:36.176Z,80.23
2018-11-26T22:43:05.864Z,80.58
2018-11-26T22:45:35.148Z,80.38
2018-11-26T22:48:07.672Z,80.44
2018-11-26T22:50:37.755Z,80.99
2018-11-26T22:53:08.087Z,81.42
2018-11-26T22:55:37.257Z,80.90
2018-11-26T22:58:09.644Z,80.83
2018-11-26T23:00:49.209Z,80.56
2018-11-26T23:03:19.518Z,80.43
2018-11-26T23:05:48.533Z,80.22
2018-11-26T23:08:17.543Z,80.38
2018-11-26T23:10:46.583Z,80.17
2018-11-26T23:13:15.561Z,80.39
2018-11-26T23:15:44.577Z,80.33
2018-11-26T23:18:13.603Z,80.20
2018-11-26T23:20:42.612Z,80.35
2018-11-26T23:23:11.599Z,80.23
2018-11-26T23:25:40.581Z,79.93
2018-11-26T23:28:09.568Z,79.77
2018-11-26T23:30:38.692Z,79.99
2018-11-26T23:33:08.115Z,80.31
2018-11-26T23:35:37.123Z,79.78
2018-11-26T23:38:06.342Z,79.20
2018-11-26T23:40:35.664Z,79.59
2018-11-26T23:43:04.659Z,79.46
2018-11-26T23:45:33.639Z,79.65
2018-11-26T23:48:02.606Z,79.77
2018-11-26T23:50:31.613Z,79.58
2018-11-26T23:53:00.588Z,79.94
2018-11-26T23:55:29.601Z,79.70
2018-11-26T23:57:58.570Z,78.82
